createdAt,value
2019-01-05T00:00:42.461Z,6.40
2019-01-05T00:03:42.140Z,6.40
2019-01-05T00:06:37.327Z,6.40
2019-01-05T00:09:40.440Z,6.40
2019-01-05T00:12:40.013Z,6.40
2019-01-05T00:15:42.531Z,6.50
2019-01-05T00:18:38.714Z,6.50
2019-01-05T00:21:38.575Z,6.50
2019-01-05T00:24:38.762Z,6.50
2019-01-05T00:27:38.323Z,6.50
2019-01-05T00:30:31.035Z,6.50
2019-01-05T00:33:30.433Z,6.50
2019-01-05T00:36:29.777Z,6.50
2019-01-05T00:42:12.030Z,6.50
2019-01-05T00:45:13.560Z,6.50
2019-01-05T00:48:13.469Z,6.50
2019-01-05T00:51:09.361Z,6.60
2019-01-05T00:54:04.563Z,6.60
2019-01-05T00:57:04.501Z,6.60
2019-01-05T00:59:58.652Z,6.60
2019-01-05T01:02:54.805Z,6.60
2019-01-05T01:05:54.943Z,6.60
2019-01-05T01:11:52.320Z,6.60
2019-01-05T01:14:51.907Z,7.30
2019-01-05T01:17:51.289Z,6.90
2019-01-05T01:20:50.699Z,6.80
2019-01-05T01:26:52.999Z,6.70
2019-01-05T01:33:01.030Z,6.70
2019-01-05T01:35:57.140Z,6.70
2019-01-05T01:39:23.392Z,6.70
2019-01-05T01:42:31.452Z,6.70
2019-01-05T01:45:39.122Z,6.80
2019-01-05T01:48:46.144Z,6.80
2019-01-05T01:51:53.216Z,6.80
2019-01-05T01:54:56.772Z,6.80
2019-01-05T01:58:04.358Z,6.80
2019-01-05T02:01:05.708Z,6.80
2019-01-05T02:04:12.707Z,6.80
2019-01-05T02:07:20.404Z,6.80
2019-01-05T02:10:27.584Z,6.90
2019-01-05T02:13:36.146Z,6.80
2019-01-05T02:23:40.524Z,6.90
2019-01-05T02:30:26.443Z,6.90
2019-01-05T02:33:52.694Z,6.90
2019-01-05T02:37:18.940Z,6.90
2019-01-05T02:43:19.212Z,6.90
2019-01-05T02:46:45.453Z,6.90
2019-01-05T02:50:11.732Z,6.90
2019-01-05T02:53:37.984Z,6.90
2019-01-05T03:00:37.670Z,7.00
2019-01-05T03:04:03.925Z,6.90
2019-01-05T03:07:30.173Z,7.00
2019-01-05T03:17:46.563Z,7.00
2019-01-05T03:21:12.875Z,7.00
2019-01-05T03:24:39.120Z,7.00
2019-01-05T03:31:25.655Z,7.00
2019-01-05T03:34:51.926Z,7.00
2019-01-05T03:38:18.172Z,7.00
2019-01-05T03:41:17.969Z,7.00
2019-01-05T03:44:09.578Z,7.10
2019-01-05T03:47:09.249Z,7.10
2019-01-05T03:50:08.823Z,7.10
2019-01-05T03:53:08.240Z,7.10
2019-01-05T03:56:00.015Z,7.10
2019-01-05T03:58:59.839Z,7.10
2019-01-05T04:01:59.520Z,7.10
2019-01-05T04:04:40.293Z,7.10
2019-01-05T04:07:40.323Z,7.10
2019-01-05T04:10:39.935Z,7.10
2019-01-05T04:13:31.680Z,7.20
2019-01-05T04:16:31.792Z,7.20
2019-01-05T04:19:34.557Z,7.20
2019-01-05T04:22:36.737Z,7.20
2019-01-05T04:25:36.404Z,7.20
2019-01-05T04:28:41.825Z,7.20
2019-01-05T04:31:41.510Z,7.20
2019-01-05T04:34:41.689Z,7.20
2019-01-05T04:40:30.144Z,7.20
2019-01-05T04:43:30.244Z,7.20
2019-01-05T04:46:29.593Z,7.20
2019-01-05T04:49:29.940Z,7.20
2019-01-05T04:52:24.887Z,7.20
2019-01-05T04:55:27.851Z,7.30
2019-01-05T04:58:24.400Z,7.20
2019-01-05T05:01:24.619Z,7.20
2019-01-05T05:04:31.008Z,7.20
2019-01-05T05:07:28.031Z,7.30
2019-01-05T05:10:25.701Z,7.30
2019-01-05T05:13:28.283Z,7.30
2019-01-05T05:19:25.971Z,7.20
2019-01-05T05:22:24.555Z,7.20
2019-01-05T05:25:24.469Z,7.20
2019-01-05T05:28:24.438Z,7.20
2019-01-05T05:31:23.824Z,7.30
2019-01-05T05:34:16.651Z,7.30
2019-01-05T05:37:22.307Z,7.30
2019-01-05T05:40:22.179Z,7.20
2019-01-05T05:46:51.173Z,7.30
2019-01-05T05:50:17.430Z,7.30
2019-01-05T05:53:43.684Z,7.30
2019-01-05T05:57:09.919Z,7.30
2019-01-05T06:00:36.171Z,7.30
2019-01-05T06:07:25.076Z,7.30
2019-01-05T06:10:51.332Z,7.30
2019-01-05T06:24:23.524Z,7.50
2019-01-05T06:31:29.928Z,7.50
2019-01-05T06:34:56.182Z,7.50
2019-01-05T06:38:22.415Z,7.50
2019-01-05T06:44:43.072Z,7.50
2019-01-05T06:47:42.479Z,7.60
2019-01-05T06:50:37.915Z,7.60
2019-01-05T06:53:37.628Z,7.60
2019-01-05T07:00:22.963Z,7.70
2019-01-05T07:03:49.212Z,7.70
2019-01-05T07:07:15.469Z,7.70
2019-01-05T07:10:41.703Z,7.70
2019-01-05T07:14:07.954Z,7.70
2019-01-05T07:17:34.216Z,7.70
2019-01-05T07:20:49.325Z,7.70
2019-01-05T07:23:49.276Z,7.70
2019-01-05T07:26:49.603Z,7.70
2019-01-05T07:29:52.444Z,7.70
2019-01-05T07:32:55.161Z,7.70
2019-01-05T07:35:57.705Z,7.70
2019-01-05T07:38:58.042Z,7.70
2019-01-05T07:42:01.407Z,7.70
2019-01-05T07:45:01.705Z,7.70
2019-01-05T07:48:01.381Z,7.70
2019-01-05T07:51:01.447Z,7.80
2019-01-05T07:54:01.085Z,8.10
2019-01-05T07:57:00.608Z,8.00
2019-01-05T08:00:00.224Z,7.90
2019-01-05T08:03:05.976Z,7.80
2019-01-05T08:06:06.230Z,7.80
2019-01-05T08:09:02.540Z,7.80
2019-01-05T08:12:02.142Z,7.70
2019-01-05T08:15:01.793Z,7.80
2019-01-05T08:18:01.552Z,7.70
2019-01-05T08:20:57.867Z,7.70
2019-01-05T08:23:57.802Z,7.70
2019-01-05T08:26:57.496Z,7.70
2019-01-05T08:29:57.028Z,7.70
2019-01-05T08:32:53.762Z,7.70
2019-01-05T08:35:53.096Z,7.80
2019-01-05T08:38:53.156Z,7.80
2019-01-05T08:41:48.067Z,7.80
2019-01-05T08:44:48.159Z,7.80
2019-01-05T08:47:47.627Z,7.80
2019-01-05T08:50:47.057Z,7.80
2019-01-05T08:53:47.286Z,7.80
2019-01-05T08:59:30.017Z,7.80
2019-01-05T09:02:35.427Z,7.80
2019-01-05T09:05:35.655Z,7.80
2019-01-05T09:08:35.376Z,7.80
2019-01-05T09:11:34.699Z,7.80
2019-01-05T09:14:34.112Z,7.80
2019-01-05T09:17:34.220Z,7.80
2019-01-05T09:20:33.709Z,7.80
2019-01-05T09:23:33.959Z,7.80
2019-01-05T09:26:33.311Z,7.80
2019-01-05T09:29:33.063Z,7.90
2019-01-05T09:32:32.500Z,7.90
2019-01-05T09:35:32.104Z,7.90
2019-01-05T09:38:32.487Z,7.80
2019-01-05T09:44:47.060Z,7.90
2019-01-05T09:47:47.026Z,7.90
2019-01-05T09:50:50.571Z,7.90
2019-01-05T09:53:50.245Z,7.90
2019-01-05T09:59:31.824Z,7.90
2019-01-05T10:02:38.194Z,7.90
2019-01-05T10:05:38.939Z,8.00
2019-01-05T10:08:39.109Z,8.00
2019-01-05T10:11:43.339Z,8.00
2019-01-05T10:14:40.703Z,8.00
2019-01-05T10:17:37.748Z,8.00
2019-01-05T10:20:39.875Z,8.00
2019-01-05T10:23:39.834Z,8.00
2019-01-05T10:26:39.188Z,8.00
2019-01-05T10:29:38.823Z,8.00
2019-01-05T10:32:37.855Z,8.00
2019-01-05T10:35:38.933Z,8.00
2019-01-05T10:38:38.768Z,8.00
2019-01-05T10:41:36.383Z,8.00
2019-01-05T10:44:17.492Z,8.00
2019-01-05T10:47:09.885Z,8.00
2019-01-05T10:50:09.236Z,8.00
2019-01-05T10:53:08.935Z,8.00
2019-01-05T10:56:09.341Z,8.10
2019-01-05T11:01:51.839Z,8.10
2019-01-05T11:04:52.193Z,8.10
2019-01-05T11:07:51.672Z,8.10
2019-01-05T11:10:51.225Z,8.10
2019-01-05T11:13:50.724Z,8.00
2019-01-05T11:16:50.106Z,8.10
2019-01-05T11:19:49.721Z,8.10
2019-01-05T11:22:48.322Z,8.10
2019-01-05T11:25:29.084Z,8.10
2019-01-05T11:28:28.539Z,8.20
2019-01-05T11:31:27.948Z,8.20
2019-01-05T11:34:19.414Z,8.10
2019-01-05T11:37:19.400Z,8.20
2019-01-05T11:40:18.936Z,8.20
2019-01-05T11:43:18.732Z,8.20
2019-01-05T11:46:18.966Z,8.30
2019-01-05T11:49:24.283Z,8.30
2019-01-05T11:52:22.316Z,8.30
2019-01-05T11:55:28.348Z,8.30
2019-01-05T11:58:25.919Z,8.20
2019-01-05T12:01:25.542Z,8.20
2019-01-05T12:04:25.181Z,8.20
2019-01-05T12:07:25.552Z,8.20
2019-01-05T12:10:29.621Z,8.20
2019-01-05T12:13:29.846Z,8.20
2019-01-05T12:16:24.244Z,8.20
2019-01-05T12:19:24.153Z,8.20
2019-01-05T12:22:24.006Z,8.20
2019-01-05T12:25:29.211Z,8.20
2019-01-05T12:28:35.956Z,8.20
2019-01-05T12:31:35.402Z,8.20
2019-01-05T12:34:35.072Z,8.30
2019-01-05T12:37:34.780Z,8.20
2019-01-05T12:40:31.367Z,8.20
2019-01-05T12:43:28.528Z,8.30
2019-01-05T12:46:19.322Z,8.30
2019-01-05T12:49:19.245Z,8.30
2019-01-05T12:52:10.549Z,8.20
2019-01-05T12:55:10.491Z,8.20
2019-01-05T12:58:10.732Z,8.20
2019-01-05T13:01:13.477Z,8.20
2019-01-05T13:04:13.748Z,8.10
2019-01-05T13:07:13.232Z,8.10
2019-01-05T13:10:19.363Z,8.20
2019-01-05T13:12:59.818Z,8.10
2019-01-05T13:15:59.220Z,8.20
2019-01-05T13:18:59.512Z,8.20
2019-01-05T13:21:59.067Z,8.20
2019-01-05T13:24:58.421Z,8.20
2019-01-05T13:27:39.702Z,8.20
2019-01-05T13:30:40.027Z,8.20
2019-01-05T13:33:39.464Z,8.10
2019-01-05T13:36:39.081Z,8.10
2019-01-05T13:39:38.757Z,8.10
2019-01-05T13:42:38.383Z,8.10
2019-01-05T13:45:30.928Z,8.10
2019-01-05T13:48:30.715Z,8.00
2019-01-05T13:54:12.740Z,8.10
2019-01-05T13:57:03.916Z,8.00
2019-01-05T14:00:04.300Z,8.00
2019-01-05T14:03:03.905Z,8.00
2019-01-05T14:05:55.636Z,8.00
2019-01-05T14:08:36.827Z,8.00
2019-01-05T14:11:27.820Z,8.00
2019-01-05T14:14:30.639Z,8.10
2019-01-05T14:17:31.904Z,8.00
2019-01-05T14:20:24.978Z,8.00
2019-01-05T14:23:24.089Z,8.00
2019-01-05T14:26:24.101Z,8.00
2019-01-05T14:29:18.728Z,8.00
2019-01-05T14:32:18.439Z,8.00
2019-01-05T14:35:17.825Z,7.90
2019-01-05T14:38:11.991Z,7.90
2019-01-05T14:41:12.397Z,7.90
2019-01-05T14:44:14.835Z,7.90
2019-01-05T14:47:14.583Z,7.90
2019-01-05T14:50:14.008Z,7.90
2019-01-05T14:53:14.353Z,7.90
2019-01-05T14:56:14.316Z,7.90
2019-01-05T14:59:13.871Z,7.80
2019-01-05T15:02:14.105Z,7.80
2019-01-05T15:05:13.549Z,7.80
2019-01-05T15:08:13.308Z,7.80
2019-01-05T15:11:12.931Z,7.80
2019-01-05T15:14:13.309Z,7.80
2019-01-05T15:17:12.763Z,7.80
2019-01-05T15:20:12.165Z,7.80
2019-01-05T15:23:17.628Z,7.80
2019-01-05T15:26:17.981Z,7.80
2019-01-05T15:29:18.291Z,7.80
2019-01-05T15:32:17.936Z,7.90
2019-01-05T15:35:17.477Z,7.90
2019-01-05T15:38:13.700Z,7.80
2019-01-05T15:41:13.076Z,7.80
2019-01-05T15:44:12.531Z,7.80
2019-01-05T15:47:11.998Z,7.80
2019-01-05T15:50:11.371Z,7.80
2019-01-05T15:53:11.570Z,7.80
2019-01-05T15:59:18.387Z,7.80
2019-01-05T16:02:24.623Z,7.80
2019-01-05T16:08:07.576Z,7.80
2019-01-05T16:11:09.981Z,7.80
2019-01-05T16:13:50.777Z,7.80
2019-01-05T16:16:53.215Z,7.80
2019-01-05T16:19:53.198Z,7.80
2019-01-05T16:22:55.742Z,7.80
2019-01-05T16:25:47.980Z,7.80
2019-01-05T16:28:48.156Z,7.80
2019-01-05T16:31:47.832Z,7.80
2019-01-05T16:34:53.136Z,7.80
2019-01-05T16:37:53.203Z,7.80
2019-01-05T16:40:52.682Z,7.80
2019-01-05T16:43:58.851Z,7.80
2019-01-05T16:46:57.512Z,7.80
2019-01-05T16:49:57.591Z,7.80
2019-01-05T16:52:57.806Z,7.90
2019-01-05T16:56:00.513Z,7.90
2019-01-05T16:59:00.448Z,7.80
2019-01-05T17:02:06.094Z,7.80
2019-01-05T17:05:13.796Z,7.80
2019-01-05T17:08:13.220Z,7.80
2019-01-05T17:11:12.851Z,7.80
2019-01-05T17:14:18.224Z,7.80
2019-01-05T17:20:09.476Z,7.80
2019-01-05T17:26:11.973Z,7.80
2019-01-05T17:29:11.892Z,7.80
2019-01-05T17:32:12.067Z,7.70
2019-01-05T17:35:11.535Z,7.70
2019-01-05T17:38:11.003Z,7.70
2019-01-05T17:41:10.694Z,7.70
2019-01-05T17:44:10.225Z,7.70
2019-01-05T17:47:10.410Z,7.70
2019-01-05T17:50:09.861Z,7.70
2019-01-05T17:53:09.508Z,7.70
2019-01-05T17:56:09.776Z,7.70
2019-01-05T17:59:09.388Z,7.70
2019-01-05T18:02:12.504Z,7.70
2019-01-05T18:05:12.228Z,7.70
2019-01-05T18:08:11.901Z,7.60
2019-01-05T18:11:12.304Z,7.60
2019-01-05T18:14:12.514Z,7.60
2019-01-05T18:17:11.916Z,7.60
2019-01-05T18:20:05.952Z,7.60
2019-01-05T18:23:06.976Z,7.60
2019-01-05T18:26:06.806Z,7.60
2019-01-05T18:29:02.612Z,7.50
2019-01-05T18:32:02.076Z,7.60
2019-01-05T18:35:02.355Z,7.60
2019-01-05T18:38:01.979Z,7.50
2019-01-05T18:41:02.164Z,7.50
2019-01-05T18:44:03.958Z,7.60
2019-01-05T18:47:03.603Z,7.50
2019-01-05T18:49:55.317Z,7.50
2019-01-05T18:52:58.207Z,7.50
2019-01-05T18:55:53.600Z,7.50
2019-01-05T18:58:51.855Z,7.50
2019-01-05T19:01:51.323Z,7.50
2019-01-05T19:04:53.880Z,7.50
2019-01-05T19:07:53.473Z,7.60
2019-01-05T19:10:54.826Z,7.50
2019-01-05T19:16:56.571Z,7.50
2019-01-05T19:19:56.061Z,7.50
2019-01-05T19:22:55.590Z,7.60
2019-01-05T19:25:58.308Z,7.50
2019-01-05T19:28:58.480Z,7.50
2019-01-05T19:31:49.946Z,7.50
2019-01-05T19:34:50.323Z,7.40
2019-01-05T19:37:30.897Z,7.50
2019-01-05T19:40:30.921Z,7.50
2019-01-05T19:46:33.455Z,7.50
2019-01-05T19:49:28.047Z,7.50
2019-01-05T19:52:27.428Z,7.50
2019-01-05T19:55:27.124Z,7.50
2019-01-05T19:58:26.503Z,7.50
2019-01-05T20:01:22.393Z,7.50
2019-01-05T20:04:22.208Z,7.40
2019-01-05T20:07:21.827Z,7.40
2019-01-05T20:10:16.780Z,7.30
2019-01-05T20:12:58.055Z,7.30
2019-01-05T20:15:58.826Z,7.30
2019-01-05T20:19:04.766Z,7.30
2019-01-05T20:22:04.478Z,7.30
2019-01-05T20:25:04.652Z,7.30
2019-01-05T20:28:10.807Z,7.30
2019-01-05T20:31:07.332Z,7.20
2019-01-05T20:37:15.494Z,7.30
2019-01-05T20:40:22.501Z,7.50
2019-01-05T20:43:29.553Z,7.40
2019-01-05T20:46:36.819Z,7.30
2019-01-05T20:49:43.824Z,7.30
2019-01-05T20:52:50.960Z,7.30
2019-01-05T20:55:57.946Z,7.30
2019-01-05T20:59:05.017Z,7.30
2019-01-05T21:02:06.100Z,7.30
2019-01-05T21:05:13.108Z,7.30
2019-01-05T21:08:20.296Z,7.30
2019-01-05T21:11:20.577Z,7.30
2019-01-05T21:14:16.988Z,7.30
2019-01-05T21:17:17.067Z,7.30
2019-01-05T21:20:24.088Z,7.30
2019-01-05T21:23:31.314Z,7.30
2019-01-05T21:26:38.423Z,7.30
2019-01-05T21:29:45.424Z,7.30
2019-01-05T21:32:44.083Z,7.30
2019-01-05T21:35:40.577Z,7.30
2019-01-05T21:38:47.607Z,7.30
2019-01-05T21:41:54.675Z,7.30
2019-01-05T21:45:01.684Z,7.30
2019-01-05T21:48:04.664Z,7.30
2019-01-05T21:51:11.884Z,7.30
2019-01-05T21:54:18.932Z,7.40
2019-01-05T21:57:19.370Z,7.30
2019-01-05T22:00:27.760Z,7.30
2019-01-05T22:03:34.812Z,7.30
2019-01-05T22:06:41.816Z,7.30
2019-01-05T22:09:48.855Z,7.30
2019-01-05T22:12:55.902Z,7.30
2019-01-05T22:16:03.141Z,7.30
2019-01-05T22:19:10.167Z,7.20
2019-01-05T22:22:17.172Z,7.20
2019-01-05T22:25:24.288Z,7.10
2019-01-05T22:28:31.324Z,7.20
2019-01-05T22:31:38.324Z,7.20
2019-01-05T22:34:32.429Z,7.20
2019-01-05T22:37:30.851Z,7.10
2019-01-05T22:40:29.463Z,7.20
2019-01-05T22:43:28.921Z,7.20
2019-01-05T22:46:28.414Z,7.20
2019-01-05T22:49:31.124Z,7.20
2019-01-05T22:52:21.532Z,7.20
2019-01-05T22:55:21.100Z,7.20
2019-01-05T22:58:21.356Z,8.30
2019-01-05T23:01:20.980Z,9.00
2019-01-05T23:04:20.553Z,8.60
2019-01-05T23:07:27.560Z,8.00
2019-01-05T23:10:34.571Z,7.60
2019-01-05T23:13:41.595Z,7.50
2019-01-05T23:16:48.587Z,7.40
2019-01-05T23:19:55.540Z,7.30
2019-01-05T23:23:02.567Z,8.40
2019-01-05T23:26:09.588Z,8.70
2019-01-05T23:28:50.389Z,8.10
2019-01-05T23:31:52.602Z,7.80
2019-01-05T23:34:52.356Z,7.60
2019-01-05T23:37:52.681Z,7.30
2019-01-05T23:40:52.302Z,7.40
2019-01-05T23:43:51.874Z,7.20
2019-01-05T23:46:51.299Z,7.20
2019-01-05T23:49:50.976Z,7.20
2019-01-05T23:55:14.595Z,7.20
2019-01-05T23:58:17.568Z,7.20
